North Canton, Ohio
Current Conditions -  °F | °C
As of 7:51 AM on Saturday 22 Nov 2014 (Local Time) from KCAK Reporting Station
Freezing Rain Freezing Rain  
Wind Chill: 20°   Ceiling: 2900
Heat Index: 29°   Visibility: 10mi
Dew Point: 15°   Wind: 10mph
Humidity: 56%   Direction: 190°S
Pressure: 30.25"   Gusts: NA
Location:  40.88°N, 81.4°W
Report Text: KCAK 221251Z 19009KT 10SM -FZRA BKN029 OVC070 M02/M09 A3025 RMK AO2 SLP263 FZRAB40 P0000 T10171094 $
Loading
Personal Weather Stations






























Interactive Weather Map New forecast layout! Learn more

10-Day Weather Forecast

Advertisements
Track Severe Weather on mobile